Time;durP1;ratioP1;P1;durP2;ratioP2;P2;SDS_P1;SDS_P2;PMS_P1;PMS_P2;Temp;Humidity;BMP_temperature;BMP_pressure;BME280_temperature;BME280_humidity;BME280_pressure;Samples;Min_cycle;Max_cycle;Signal;HPM_P1;HPM_P2
2021/06/25 00:01:05;;;;;;;20.40;7.32;;;;;;;30.27;45.77;99283.97;4484584;32;34618;-67
2021/06/25 00:03:33;;;;;;;23.27;7.03;;;;;;;30.28;45.75;99279.28;4483374;32;34217;-64
2021/06/25 00:06:01;;;;;;;19.87;6.97;;;;;;;30.27;45.81;99278.47;4484458;32;33109;-67
2021/06/25 00:08:28;;;;;;;20.25;7.05;;;;;;;30.25;45.86;99283.41;4484313;32;34607;-67
2021/06/25 00:10:56;;;;;;;21.10;7.05;;;;;;;30.26;45.87;99276.78;4484517;31;33568;-66
2021/06/25 00:13:23;;;;;;;20.62;6.50;;;;;;;30.28;45.83;99276.53;4484594;32;33413;-66
2021/06/25 00:15:51;;;;;;;22.23;6.30;;;;;;;30.25;45.86;99277.91;4482880;32;33779;-65
2021/06/25 00:18:19;;;;;;;21.65;7.00;;;;;;;30.27;45.87;99278.47;4481264;32;34640;-66
2021/06/25 00:20:46;;;;;;;22.30;6.72;;;;;;;30.26;45.93;99274.03;4482616;32;34569;-66
2021/06/25 00:23:14;;;;;;;20.05;6.80;;;;;;;30.26;45.96;99265.78;4484307;31;33016;-66
2021/06/25 00:25:43;;;;;;;19.30;6.62;;;;;;;30.26;45.96;99267.72;4483369;32;34334;-67
2021/06/25 00:28:12;;;;;;;19.45;7.12;;;;;;;30.27;45.86;99270.19;4484285;32;33941;-65
2021/06/25 00:30:41;;;;;;;22.48;6.57;;;;;;;30.27;45.85;99256.44;4482813;32;34763;-65
2021/06/25 00:33:09;;;;;;;;;;;;;;;30.26;45.93;99257.53;4482202;32;33496;-64
2021/06/25 00:35:37;;;;;;;24.58;6.90;;;;;;;30.39;45.61;99256.06;4483294;32;33567;-65
2021/06/25 00:38:05;;;;;;;20.52;6.85;;;;;;;30.27;45.74;99259.19;4484469;32;33848;-64
2021/06/25 00:40:33;;;;;;;18.05;7.00;;;;;;;30.26;45.85;99262.22;4484592;32;33746;-65
2021/06/25 00:43:02;;;;;;;25.65;6.87;;;;;;;30.25;45.80;99266.91;4483452;32;34200;-64
2021/06/25 00:45:30;;;;;;;26.10;7.10;;;;;;;30.24;45.80;99259.75;4482850;32;33634;-64
2021/06/25 00:47:58;;;;;;;21.62;5.97;;;;;;;30.24;45.79;99246.00;4482288;32;33818;-66
2021/06/25 00:50:29;;;;;;;21.60;6.78;;;;;;;30.23;45.79;99245.19;4491630;31;33893;-66
2021/06/25 00:52:58;;;;;;;21.40;6.70;;;;;;;30.23;45.76;99253.44;4484246;32;33385;-66
2021/06/25 00:55:27;;;;;;;24.90;7.68;;;;;;;30.24;45.76;99255.06;4483110;32;33713;-66
2021/06/25 00:57:54;;;;;;;24.50;7.60;;;;;;;30.24;45.68;99248.75;4482733;32;33831;-66
2021/06/25 01:00:24;;;;;;;16.17;6.60;;;;;;;30.24;45.67;99244.06;4484149;32;33716;-66
2021/06/25 01:02:52;;;;;;;18.35;7.20;;;;;;;30.26;45.63;99256.72;4484009;32;33975;-64
2021/06/25 01:05:19;;;;;;;19.42;6.05;;;;;;;30.24;45.66;99249.56;4484304;32;33492;-66
2021/06/25 01:07:47;;;;;;;20.37;7.47;;;;;;;30.26;45.69;99253.94;4483100;32;35064;-66
2021/06/25 01:10:15;;;;;;;18.02;7.25;;;;;;;30.24;45.68;99246.81;4484078;32;34903;-66
2021/06/25 01:12:42;;;;;;;19.23;6.78;;;;;;;30.26;45.66;99252.03;4484522;32;34071;-65
2021/06/25 01:15:13;;;;;;;18.05;7.50;;;;;;;30.24;45.75;99255.06;4484089;32;33923;-65
2021/06/25 01:17:42;;;;;;;21.85;7.45;;;;;;;30.24;45.75;99255.06;4484225;32;33622;-66
2021/06/25 01:20:11;;;;;;;20.30;6.68;;;;;;;30.24;45.71;99249.56;4484374;32;33945;-66
2021/06/25 01:22:40;;;;;;;;;;;;;;;30.24;45.55;99254.25;4484147;31;33183;-66
2021/06/25 01:25:17;;;;;;;21.73;7.15;;;;;;;30.36;45.28;99251.16;4484058;32;34966;-66
2021/06/25 01:27:46;;;;;;;21.50;6.78;;;;;;;30.27;45.50;99252.88;4466835;32;33885;-65
2021/06/25 01:30:19;;;;;;;21.42;6.45;;;;;;;30.23;45.55;99247.94;4472815;32;33749;-66
2021/06/25 01:32:47;;;;;;;20.23;6.53;;;;;;;30.22;45.62;99239.97;4482794;32;33357;-64
2021/06/25 01:35:15;;;;;;;20.48;6.82;;;;;;;30.23;45.65;99241.59;4482818;32;34729;-64
2021/06/25 01:37:43;;;;;;;19.77;6.87;;;;;;;30.22;45.66;99242.72;4484254;32;33586;-64
2021/06/25 01:40:12;;;;;;;19.50;6.32;;;;;;;30.22;45.66;99249.03;4483853;32;33909;-64
2021/06/25 01:42:40;;;;;;;20.35;6.60;;;;;;;30.22;45.68;99245.47;4484201;32;34220;-64
2021/06/25 01:45:16;;;;;;;17.87;6.85;;;;;;;30.23;45.67;99252.63;4469253;32;34048;-63
2021/06/25 01:47:44;;;;;;;16.83;6.62;;;;;;;30.22;45.72;99271.06;4482652;32;34007;-64
2021/06/25 01:50:17;;;;;;;22.77;6.60;;;;;;;30.21;45.75;99272.13;4483675;32;33627;-64
2021/06/25 01:52:46;;;;;;;16.40;5.68;;;;;;;30.22;45.79;99279.31;4483875;32;33316;-64
2021/06/25 01:55:13;;;;;;;20.95;6.82;;;;;;;30.22;45.77;99271.06;4483638;32;34812;-64
2021/06/25 01:57:41;;;;;;;17.42;6.85;;;;;;;30.22;45.76;99278.50;4483637;32;33783;-65
2021/06/25 02:00:09;;;;;;;23.27;7.47;;;;;;;30.20;45.68;99281.50;4482073;32;33850;-66
2021/06/25 02:02:37;;;;;;;21.92;6.75;;;;;;;30.20;45.67;99281.50;4482812;32;34171;-65
2021/06/25 02:05:06;;;;;;;20.15;6.40;;;;;;;30.21;45.57;99283.16;4482471;32;33724;-66
2021/06/25 02:07:34;;;;;;;19.30;6.37;;;;;;;30.20;45.57;99275.19;4483739;32;34042;-65
2021/06/25 02:10:03;;;;;;;21.48;6.82;;;;;;;30.19;45.54;99268.87;4483726;32;34648;-65
2021/06/25 02:12:30;;;;;;;19.75;7.00;;;;;;;30.20;45.51;99275.19;4483453;32;35069;-66
2021/06/25 02:14:58;;;;;;;18.12;6.90;;;;;;;30.20;45.43;99287.00;4483444;32;33876;-64
2021/06/25 02:17:26;;;;;;;18.60;6.85;;;;;;;30.19;45.44;99285.37;4483512;32;34593;-66
2021/06/25 02:19:53;;;;;;;20.80;7.40;;;;;;;30.19;45.44;99279.06;4483536;32;33703;-65
2021/06/25 02:22:21;;;;;;;17.30;7.22;;;;;;;30.18;45.44;99282.91;4483491;31;33258;-64
2021/06/25 02:24:48;;;;;;;18.52;6.57;;;;;;;30.18;45.35;99275.47;4483329;32;34126;-65
2021/06/25 02:27:16;;;;;;;21.23;6.47;;;;;;;30.18;45.33;99282.91;4483546;32;33552;-65
2021/06/25 02:29:44;;;;;;;20.25;6.87;;;;;;;30.18;45.32;99283.72;4483212;32;33831;-65
2021/06/25 02:32:12;;;;;;;17.17;7.35;;;;;;;30.19;45.30;99284.56;4483043;32;33418;-65
2021/06/25 02:34:39;;;;;;;22.23;7.72;;;;;;;30.17;45.25;99276.59;4483399;32;33589;-65
2021/06/25 02:37:07;;;;;;;15.65;6.97;;;;;;;30.16;45.25;99277.69;4483147;32;34606;-66
2021/06/25 02:39:34;;;;;;;22.60;6.93;;;;;;;30.16;45.24;99283.19;4482757;32;33999;-65
2021/06/25 02:42:04;;;;;;;17.60;7.30;;;;;;;30.17;45.23;99279.34;4483036;32;33920;-66
2021/06/25 02:44:32;;;;;;;14.85;7.37;;;;;;;30.16;45.26;99290.63;4483130;32;33473;-65
2021/06/25 02:46:59;;;;;;;17.30;6.65;;;;;;;30.17;45.18;99270.25;4481815;32;33689;-66
2021/06/25 02:49:27;;;;;;;18.20;6.82;;;;;;;30.15;45.20;99264.22;4483159;32;33720;-67
2021/06/25 02:51:55;;;;;;;17.80;7.00;;;;;;;30.14;45.15;99266.16;4483081;32;34119;-65
2021/06/25 02:54:23;;;;;;;21.65;7.68;;;;;;;30.15;45.08;99255.97;4482868;32;33733;-66
2021/06/25 02:56:52;;;;;;;15.43;7.53;;;;;;;30.14;45.04;99255.13;4494875;31;34460;-64
2021/06/25 02:59:19;;;;;;;14.85;7.10;;;;;;;30.16;45.06;99263.09;4500579;31;33624;-66
2021/06/25 03:01:47;;;;;;;15.48;6.78;;;;;;;30.15;45.05;99266.97;4500757;31;34231;-65
2021/06/25 03:04:14;;;;;;;15.50;6.97;;;;;;;30.15;45.12;99261.47;4492042;31;33896;-66
2021/06/25 03:06:43;;;;;;;19.90;8.00;;;;;;;30.14;45.09;99271.66;4487274;31;33841;-67
2021/06/25 03:09:11;;;;;;;18.60;7.87;;;;;;;30.13;45.12;99267.25;4482751;32;33821;-66
2021/06/25 03:11:38;;;;;;;14.45;7.25;;;;;;;30.13;45.06;99266.41;4482445;31;33115;-66
2021/06/25 03:14:06;;;;;;;14.80;8.00;;;;;;;30.12;45.06;99273.81;4499702;31;34363;-66
2021/06/25 03:16:34;;;;;;;13.50;7.18;;;;;;;30.13;45.02;99278.25;4484772;32;34732;-67
2021/06/25 03:19:02;;;;;;;16.62;7.75;;;;;;;30.12;45.01;99278.50;4485031;32;34356;-66
2021/06/25 03:21:29;;;;;;;15.40;7.03;;;;;;;30.11;45.04;99283.19;4486488;31;33506;-66
2021/06/25 03:23:57;;;;;;;17.77;7.85;;;;;;;30.12;45.04;99281.25;4500591;31;33758;-66
2021/06/25 03:26:25;;;;;;;14.65;7.72;;;;;;;30.11;45.03;99282.34;4495502;31;34652;-65
2021/06/25 03:28:52;;;;;;;13.23;7.10;;;;;;;30.12;44.99;99308.75;4492951;31;34531;-64
2021/06/25 03:31:21;;;;;;;16.10;7.70;;;;;;;30.11;45.01;99302.44;4500980;31;33312;-64
2021/06/25 03:33:49;;;;;;;15.85;7.45;;;;;;;30.11;45.00;99310.69;4475431;31;34441;-67
2021/06/25 03:36:17;;;;;;;17.42;7.85;;;;;;;30.13;44.95;99305.78;4484717;32;34992;-64
2021/06/25 03:38:44;;;;;;;19.75;7.47;;;;;;;30.10;45.00;99300.81;4484747;32;34328;-64
2021/06/25 03:41:12;;;;;;;19.00;7.75;;;;;;;30.09;45.04;99315.66;4484709;32;34317;-65
2021/06/25 03:43:39;;;;;;;15.82;8.25;;;;;;;30.09;45.02;99323.09;4484808;32;34678;-64
2021/06/25 03:46:07;;;;;;;19.35;7.95;;;;;;;30.08;45.00;99316.78;4498758;31;33826;-66
2021/06/25 03:48:35;;;;;;;15.95;8.13;;;;;;;30.09;44.97;99328.59;4500496;31;33980;-64
2021/06/25 03:51:03;;;;;;;12.48;7.25;;;;;;;30.08;44.89;99318.69;4500603;31;33932;-64
2021/06/25 03:53:31;;;;;;;18.37;9.30;;;;;;;30.08;44.88;99324.19;4485600;31;34520;-64
2021/06/25 03:56:12;;;;;;;15.90;7.72;;;;;;;30.07;44.92;99317.03;4482863;32;33819;-65
2021/06/25 03:58:44;;;;;;;14.02;7.57;;;;;;;30.07;44.87;99323.37;4468967;32;34652;-66
2021/06/25 04:01:17;;;;;;;12.48;6.82;;;;;;;30.06;44.72;99327.22;4474758;32;34245;-66
2021/06/25 04:03:45;;;;;;;16.33;7.60;;;;;;;30.07;44.80;99330.81;4484601;32;34818;-63
2021/06/25 04:06:13;;;;;;;13.70;7.60;;;;;;;30.06;44.79;99324.47;4484564;32;33243;-65
2021/06/25 04:08:41;;;;;;;18.65;8.27;;;;;;;30.06;44.78;99329.16;4484276;32;34613;-66
2021/06/25 04:11:09;;;;;;;17.37;7.70;;;;;;;30.07;44.77;99341.81;4484336;32;33119;-64
2021/06/25 04:13:37;;;;;;;16.35;8.15;;;;;;;30.07;44.82;99347.31;4494884;31;34311;-66
2021/06/25 04:16:04;;;;;;;14.73;7.53;;;;;;;30.06;44.81;99340.16;4500543;31;33921;-64
2021/06/25 04:18:32;;;;;;;13.30;7.07;;;;;;;30.07;44.75;99345.37;4500083;31;33781;-66
2021/06/25 04:21:00;;;;;;;14.63;7.30;;;;;;;30.08;44.75;99341.53;4496825;31;33585;-67
2021/06/25 04:23:27;;;;;;;12.10;6.35;;;;;;;30.08;44.68;99352.56;4484385;32;35211;-66
2021/06/25 04:25:55;;;;;;;15.25;7.40;;;;;;;30.08;44.72;99349.78;4484449;32;34459;-66
2021/06/25 04:28:23;;;;;;;14.50;6.78;;;;;;;30.08;44.68;99360.81;4484521;32;33872;-66
2021/06/25 04:30:51;;;;;;;11.05;6.95;;;;;;;30.06;44.67;99363.00;4484484;32;33419;-66
2021/06/25 04:33:19;;;;;;;11.65;6.82;;;;;;;30.07;44.67;99370.13;4484630;32;33756;-66
2021/06/25 04:35:48;;;;;;;13.40;7.62;;;;;;;30.07;44.70;99372.06;4484541;32;33964;-65
2021/06/25 04:38:16;;;;;;;13.55;7.30;;;;;;;30.07;44.69;99381.13;4484276;32;34016;-66
2021/06/25 04:40:44;;;;;;;14.00;6.85;;;;;;;30.07;44.65;99370.13;4484218;32;33585;-64
2021/06/25 04:43:13;;;;;;;11.65;6.78;;;;;;;30.06;44.61;99382.25;4484693;32;33774;-65
2021/06/25 04:45:40;;;;;;;14.47;6.83;;;;;;;30.05;44.59;99383.37;4484557;32;33855;-67
2021/06/25 04:48:13;;;;;;;12.88;6.72;;;;;;;30.07;44.50;99377.56;4484269;32;33763;-66
2021/06/25 04:50:41;;;;;;;15.52;7.10;;;;;;;30.05;44.54;99372.38;4498387;31;34063;-67
2021/06/25 04:53:09;;;;;;;15.52;7.00;;;;;;;30.05;44.35;99372.38;4500098;31;33831;-67
2021/06/25 04:55:42;;;;;;;15.38;6.82;;;;;;;30.05;44.38;99388.88;4500040;31;34914;-67
2021/06/25 04:58:14;;;;;;;15.57;7.20;;;;;;;30.05;44.39;99386.13;4499915;31;33922;-66
2021/06/25 05:00:43;;;;;;;13.93;6.70;;;;;;;30.05;44.30;99377.88;4500213;31;34146;-67
2021/06/25 05:03:11;;;;;;;14.80;7.05;;;;;;;30.04;44.44;99376.22;4485605;31;34107;-66
2021/06/25 05:05:38;;;;;;;15.75;7.60;;;;;;;30.04;44.46;99378.97;4500056;31;33688;-66
2021/06/25 05:08:06;;;;;;;13.18;6.93;;;;;;;30.04;44.49;99372.66;4492759;31;33722;-65
2021/06/25 05:10:34;;;;;;;14.38;7.20;;;;;;;30.05;44.51;99374.28;4483641;32;34018;-69
2021/06/25 05:13:02;;;;;;;10.05;6.72;;;;;;;30.05;44.53;99379.78;4484347;32;33767;-68
2021/06/25 05:15:30;;;;;;;22.45;6.97;;;;;;;30.05;44.51;99379.78;4480678;32;34870;-65
2021/06/25 05:18:13;;;;;;;14.30;6.35;;;;;;;30.05;44.50;99380.62;4482258;32;34452;-66
2021/06/25 05:21:00;;;;;;;11.65;6.45;;;;;;;30.06;44.54;99385.00;4481701;32;34267;-66
2021/06/25 05:23:28;;;;;;;14.23;6.30;;;;;;;30.07;44.62;99377.56;4483409;31;34818;-66
2021/06/25 05:25:56;;;;;;;12.90;6.78;;;;;;;30.07;44.71;99377.56;4483611;32;34661;-66
2021/06/25 05:28:24;;;;;;;11.30;6.10;;;;;;;30.07;44.73;99377.56;4483664;32;34724;-66
2021/06/25 05:30:51;;;;;;;11.23;7.03;;;;;;;30.06;44.77;99379.50;4482798;32;33615;-67
2021/06/25 05:33:19;;;;;;;12.27;6.43;;;;;;;30.07;44.80;99372.06;4483899;32;33828;-66
2021/06/25 05:35:48;;;;;;;9.88;5.93;;;;;;;30.09;44.84;99370.69;4484187;32;33914;-65
2021/06/25 05:38:17;;;;;;;10.38;6.07;;;;;;;30.09;44.88;99373.44;4483875;32;34403;-67
2021/06/25 05:40:44;;;;;;;11.95;6.20;;;;;;;30.12;44.86;99367.38;4483845;32;33361;-66
2021/06/25 05:43:12;;;;;;;10.77;6.45;;;;;;;30.13;44.91;99380.06;4484245;32;34458;-67
2021/06/25 05:45:40;;;;;;;12.23;6.12;;;;;;;30.13;44.93;99371.81;4483535;32;33851;-67
2021/06/25 05:48:08;;;;;;;10.68;5.70;;;;;;;30.14;44.96;99378.13;4469544;32;34484;-68
2021/06/25 05:50:37;;;;;;;12.52;6.35;;;;;;;30.13;44.97;99374.56;4483571;32;34113;-68
2021/06/25 05:53:05;;;;;;;13.55;6.90;;;;;;;30.14;45.01;99376.22;4482505;32;33903;-66
2021/06/25 05:55:33;;;;;;;14.35;6.40;;;;;;;30.15;44.99;99377.84;4483513;32;34838;-67
2021/06/25 05:58:01;;;;;;;14.70;5.93;;;;;;;30.15;45.01;99377.84;4483624;32;33630;-66
2021/06/25 06:00:29;;;;;;;11.57;5.90;;;;;;;30.16;45.03;99379.47;4483708;32;33382;-65
2021/06/25 06:02:58;;;;;;;13.62;6.03;;;;;;;30.17;45.05;99369.31;4483140;32;33901;-66
2021/06/25 06:05:25;;;;;;;12.90;6.22;;;;;;;30.18;45.03;99382.81;4483724;32;34885;-65
2021/06/25 06:07:53;;;;;;;16.52;6.20;;;;;;;30.18;45.08;99379.22;4483690;32;33698;-67
2021/06/25 06:10:20;;;;;;;9.73;6.30;;;;;;;30.18;45.09;99382.81;4483324;32;34046;-63
2021/06/25 06:12:48;;;;;;;9.52;6.30;;;;;;;30.19;45.08;99386.38;4483868;32;33978;-66
2021/06/25 06:15:17;;;;;;;11.52;5.60;;;;;;;30.19;45.13;99400.94;4483270;32;33973;-67
2021/06/25 06:17:47;;;;;;;10.40;5.67;;;;;;;30.20;45.14;99401.78;4482700;32;34180;-68
2021/06/25 06:20:24;;;;;;;11.75;6.00;;;;;;;30.20;45.13;99405.34;4483022;32;33539;-68
2021/06/25 06:31:22;;;;;;;11.30;5.80;;;;;;;30.20;45.25;99421.03;4483555;32;34116;-68
2021/06/25 06:38:57;;;;;;;11.95;5.65;;;;;;;30.20;45.30;99434.78;4485231;32;34896;-67
2021/06/25 06:41:25;;;;;;;10.73;5.60;;;;;;;30.20;45.29;99423.78;4485433;32;33122;-68
2021/06/25 06:43:54;;;;;;;9.52;5.97;;;;;;;30.20;45.29;99429.28;4485159;32;33840;-68
2021/06/25 06:46:22;;;;;;;11.12;6.18;;;;;;;30.19;45.27;99433.16;4485307;32;34973;-66
2021/06/25 06:48:50;;;;;;;10.45;6.18;;;;;;;30.20;45.20;99440.28;4485109;32;34526;-67
2021/06/25 06:51:19;;;;;;;12.63;6.00;;;;;;;30.20;45.18;99443.03;4482887;32;34074;-66
2021/06/25 06:53:47;;;;;;;9.52;5.55;;;;;;;30.19;45.17;99433.97;4485241;32;33861;-65
2021/06/25 06:56:19;;;;;;;10.50;5.57;;;;;;;30.20;45.12;99440.28;4485154;32;33785;-68
2021/06/25 06:58:48;;;;;;;9.45;5.40;;;;;;;30.19;45.10;99439.47;4484415;32;33926;-68
2021/06/25 07:01:16;;;;;;;8.90;5.75;;;;;;;30.20;45.08;99443.88;4483690;32;33584;-68
2021/06/25 07:04:02;;;;;;;9.48;5.68;;;;;;;30.21;45.06;99452.94;4484739;32;33760;-67
2021/06/25 07:06:29;;;;;;;9.85;5.47;;;;;;;30.21;45.02;99444.69;4484959;32;34779;-67
2021/06/25 07:08:57;;;;;;;10.45;5.12;;;;;;;30.21;45.07;99444.69;4484772;32;34638;-66
2021/06/25 07:11:25;;;;;;;9.60;5.93;;;;;;;30.21;45.08;99445.50;4484857;32;34263;-68
2021/06/25 07:13:52;;;;;;;11.35;5.75;;;;;;;30.22;45.06;99438.91;4483687;32;33866;-67
2021/06/25 07:16:20;;;;;;;9.23;5.45;;;;;;;30.22;45.07;99449.94;4481320;32;34894;-68
2021/06/25 07:18:48;;;;;;;11.52;5.32;;;;;;;30.23;45.02;99454.31;4488799;31;34602;-64
2021/06/25 07:21:18;;;;;;;9.98;5.45;;;;;;;30.25;45.03;99454.03;4484849;32;33315;-67
2021/06/25 07:23:47;;;;;;;;;;;;;;;30.25;45.03;99456.78;4484856;31;33509;-65
2021/06/25 07:26:14;;;;;;;9.82;5.65;;;;;;;30.40;44.80;99458.66;4484789;32;35600;-65
2021/06/25 07:28:44;;;;;;;8.30;5.05;;;;;;;30.32;44.98;99456.50;4484736;32;34707;-66
2021/06/25 07:31:11;;;;;;;9.50;5.07;;;;;;;30.30;45.11;99461.44;4484794;32;34072;-66
2021/06/25 07:33:39;;;;;;;10.63;5.30;;;;;;;30.30;45.12;99470.53;4484724;32;33555;-67
2021/06/25 07:36:07;;;;;;;8.48;5.10;;;;;;;30.32;45.12;99473.84;4485049;32;34773;-67
2021/06/25 07:38:34;;;;;;;8.27;4.90;;;;;;;30.33;45.16;99466.41;4484183;32;33782;-67
2021/06/25 07:41:02;;;;;;;11.32;5.15;;;;;;;30.33;45.17;99480.97;4484511;32;33337;-67
2021/06/25 07:43:30;;;;;;;7.93;4.97;;;;;;;30.34;45.14;99479.06;4484209;32;33891;-67
2021/06/25 07:45:57;;;;;;;8.15;5.10;;;;;;;30.33;45.21;99480.16;4484560;32;33839;-70
2021/06/25 07:48:25;;;;;;;8.13;4.35;;;;;;;30.35;45.23;99491.69;4484548;32;33747;-68
2021/06/25 07:50:53;;;;;;;7.25;4.93;;;;;;;30.34;45.21;99490.06;4484541;32;34573;-66
2021/06/25 07:53:21;;;;;;;7.70;4.40;;;;;;;30.32;45.32;99487.59;4484439;32;34812;-68
2021/06/25 07:55:48;;;;;;;11.57;5.07;;;;;;;30.34;45.25;99498.31;4484755;32;33625;-67
2021/06/25 07:58:16;;;;;;;10.55;5.12;;;;;;;30.34;45.26;99481.81;4484162;32;34064;-67
2021/06/25 08:00:44;;;;;;;8.70;5.20;;;;;;;30.34;45.16;99481.81;4484427;32;33569;-66
2021/06/25 08:03:12;;;;;;;9.13;5.18;;;;;;;30.36;45.17;99493.38;4484065;32;34513;-68
2021/06/25 08:05:40;;;;;;;9.48;5.68;;;;;;;30.35;45.23;99488.94;4484959;32;34712;-67
2021/06/25 08:08:07;;;;;;;9.55;4.95;;;;;;;30.36;45.19;99488.69;4484430;32;34434;-68
2021/06/25 08:10:35;;;;;;;8.43;5.18;;;;;;;30.36;45.19;99488.69;4484601;32;33275;-67
2021/06/25 08:13:03;;;;;;;11.77;5.45;;;;;;;30.35;45.22;99484.25;4483894;32;33815;-67
2021/06/25 08:15:31;;;;;;;7.47;4.85;;;;;;;30.35;45.15;99489.78;4484501;32;33742;-66
2021/06/25 08:18:00;;;;;;;10.18;5.28;;;;;;;30.35;45.14;99486.19;4484485;32;33746;-67
2021/06/25 08:20:27;;;;;;;8.27;4.55;;;;;;;30.35;45.10;99480.69;4484502;32;33394;-68
2021/06/25 08:22:56;;;;;;;7.50;4.53;;;;;;;30.35;45.05;99487.03;4484165;31;34649;-67
2021/06/25 08:25:25;;;;;;;10.55;5.12;;;;;;;30.35;45.07;99484.25;4484313;32;33813;-68
2021/06/25 08:27:58;;;;;;;9.32;4.75;;;;;;;30.35;45.08;99486.19;4483980;32;34489;-67
2021/06/25 08:30:27;;;;;;;10.48;5.00;;;;;;;30.35;45.07;99495.28;4482851;32;34778;-68
2021/06/25 08:32:54;;;;;;;9.52;4.85;;;;;;;30.35;45.06;99484.25;4484353;32;33542;-65
2021/06/25 08:35:22;;;;;;;8.52;5.32;;;;;;;30.36;45.05;99480.44;4484245;32;34126;-68
2021/06/25 08:37:50;;;;;;;7.37;4.70;;;;;;;30.36;45.07;99482.37;4484353;32;33491;-68
2021/06/25 08:40:18;;;;;;;7.53;4.55;;;;;;;30.35;45.08;99483.44;4484337;32;34083;-67
2021/06/25 08:42:46;;;;;;;8.00;4.62;;;;;;;30.35;45.07;99484.25;4484426;32;34630;-68
2021/06/25 08:45:14;;;;;;;9.00;4.53;;;;;;;30.36;45.06;99493.38;4484286;32;35130;-66
2021/06/25 08:47:50;;;;;;;8.98;4.70;;;;;;;30.35;45.07;99486.19;4484210;32;34057;-68
2021/06/25 08:50:19;;;;;;;9.48;5.07;;;;;;;30.35;45.05;99495.28;4483757;32;33589;-68
2021/06/25 08:52:49;;;;;;;8.95;5.20;;;;;;;30.34;45.06;99496.38;4483412;32;34812;-68
2021/06/25 08:55:16;;;;;;;9.57;5.10;;;;;;;30.34;45.04;99493.62;4482983;32;33934;-67
2021/06/25 08:57:44;;;;;;;7.53;4.62;;;;;;;30.35;44.99;99498.03;4484143;32;33732;-68
2021/06/25 09:00:14;;;;;;;8.20;4.65;;;;;;;30.35;45.02;99494.47;4484188;32;34158;-67
2021/06/25 09:02:41;;;;;;;6.87;4.55;;;;;;;30.34;45.00;99490.06;4482746;32;33781;-67
2021/06/25 09:05:21;;;;;;;6.93;4.45;;;;;;;30.35;44.97;99488.94;4484189;32;34853;-67
2021/06/25 09:07:49;;;;;;;11.25;4.68;;;;;;;30.35;44.94;99492.53;4482892;32;32544;-68
2021/06/25 09:10:37;;;;;;;8.98;4.40;;;;;;;30.34;44.98;99499.13;4482488;32;33281;-68
2021/06/25 09:13:14;;;;;;;7.05;4.20;;;;;;;30.35;44.98;99498.03;4483967;32;33848;-67
2021/06/25 09:15:42;;;;;;;8.02;4.87;;;;;;;30.34;45.03;99501.06;4483693;32;33933;-68
2021/06/25 09:18:11;;;;;;;6.30;4.00;;;;;;;30.33;45.00;99496.69;4484147;32;34614;-69
2021/06/25 09:20:43;;;;;;;7.93;4.78;;;;;;;30.32;45.02;99493.09;4484323;32;33921;-68
2021/06/25 09:23:15;;;;;;;7.12;4.65;;;;;;;30.33;44.99;99486.50;4484041;31;34556;-68
2021/06/25 09:25:53;;;;;;;7.32;4.53;;;;;;;30.32;45.00;99487.59;4483953;32;34881;-68
2021/06/25 09:28:28;;;;;;;8.88;4.85;;;;;;;30.33;44.96;99483.75;4484229;32;33856;-68
2021/06/25 09:30:56;;;;;;;8.82;4.55;;;;;;;30.32;45.00;99484.03;4484453;32;33398;-67
2021/06/25 09:33:24;;;;;;;6.85;4.45;;;;;;;30.32;44.99;99482.09;4483963;32;34302;-67
2021/06/25 09:35:52;;;;;;;8.35;4.87;;;;;;;30.32;45.01;99486.78;4484164;32;33870;-67
2021/06/25 09:38:35;;;;;;;7.82;4.85;;;;;;;30.33;45.00;99469.16;4483915;32;34128;-68
2021/06/25 09:41:18;;;;;;;6.57;4.20;;;;;;;30.34;44.96;99477.13;4482805;32;33626;-68
2021/06/25 09:44:17;;;;;;;7.95;4.62;;;;;;;30.33;44.92;99475.47;4483868;32;34293;-67
2021/06/25 09:46:48;;;;;;;7.47;4.18;;;;;;;30.37;44.86;99473.00;4446385;32;33731;-68
2021/06/25 09:49:24;;;;;;;7.20;4.20;;;;;;;30.32;44.99;99465.59;4468004;32;33880;-68
2021/06/25 09:52:01;;;;;;;8.75;4.20;;;;;;;30.31;44.97;99466.69;4468008;32;33312;-67
2021/06/25 09:54:29;;;;;;;7.90;4.35;;;;;;;30.32;44.92;99464.75;4467963;32;33908;-67
2021/06/25 09:57:15;;;;;;;7.00;4.40;;;;;;;30.31;44.91;99461.19;4467987;32;33993;-68
2021/06/25 10:02:25;;;;;;;8.50;4.43;;;;;;;30.31;44.91;99458.44;4467972;32;33222;-67
2021/06/25 10:05:13;;;;;;;8.13;4.70;;;;;;;30.30;44.90;99465.03;4467794;32;34807;-68
2021/06/25 10:07:41;;;;;;;7.47;4.12;;;;;;;30.34;44.84;99462.53;4467587;32;33893;-68
2021/06/25 10:10:10;;;;;;;7.22;4.40;;;;;;;30.31;44.89;99466.69;4467656;32;33766;-68
2021/06/25 10:12:43;;;;;;;6.80;4.40;;;;;;;30.31;44.89;99472.19;4467679;32;33217;-67
2021/06/25 10:15:12;;;;;;;5.85;4.03;;;;;;;30.31;44.90;99465.84;4476444;32;35419;-67
2021/06/25 10:17:39;;;;;;;7.28;4.00;;;;;;;30.31;44.88;99468.59;4481968;32;35044;-69
2021/06/25 10:20:08;;;;;;;6.20;4.32;;;;;;;30.32;44.87;99473.03;4469062;32;33824;-68
2021/06/25 10:22:36;;;;;;;6.80;4.37;;;;;;;30.31;44.91;99465.84;4483246;32;33559;-68
2021/06/25 10:25:05;;;;;;;8.18;4.47;;;;;;;30.33;45.02;99471.91;4483135;32;34706;-67
2021/06/25 10:27:34;;;;;;;6.95;3.72;;;;;;;30.33;45.03;99458.97;4483640;32;34733;-67
2021/06/25 10:30:04;;;;;;;6.47;4.05;;;;;;;30.32;45.11;99462.00;4483153;32;34916;-69
2021/06/25 10:32:31;;;;;;;7.32;4.30;;;;;;;30.32;45.18;99468.34;4483356;32;33477;-70
2021/06/25 10:34:59;;;;;;;11.10;4.03;;;;;;;30.34;45.04;99466.13;4481874;32;34826;-68
2021/06/25 10:37:28;;;;;;;7.20;4.45;;;;;;;30.36;45.36;99460.34;4481725;32;33638;-68
2021/06/25 10:39:56;;;;;;;;;;;;;;;30.38;45.38;99469.13;4482179;32;33853;-71
2021/06/25 10:42:40;;;;;;;6.45;4.00;;;;;;;30.50;45.18;99466.91;4483264;32;32978;-67
2021/06/25 10:45:08;;;;;;;8.00;3.92;;;;;;;30.44;45.42;99473.50;4479530;32;33826;-69
2021/06/25 10:47:36;;;;;;;8.50;4.50;;;;;;;30.41;45.59;99476.84;4483278;32;34186;-70
2021/06/25 10:50:13;;;;;;;6.57;3.90;;;;;;;30.39;45.73;99470.78;4468165;32;33553;-73
2021/06/25 10:52:42;;;;;;;9.27;4.45;;;;;;;30.41;45.70;99468.59;4483048;32;33328;-68
2021/06/25 10:55:18;;;;;;;8.18;4.28;;;;;;;30.42;45.69;99473.78;4481853;32;34533;-70
2021/06/25 10:57:50;;;;;;;12.30;4.40;;;;;;;30.43;45.89;99467.19;4481649;32;34692;-72
2021/06/25 11:00:37;;;;;;;9.82;4.25;;;;;;;30.42;45.83;99464.72;4481547;32;34508;-72
2021/06/25 11:03:05;;;;;;;6.75;4.00;;;;;;;30.45;45.69;99461.38;4481254;32;33267;-72
2021/06/25 11:05:33;;;;;;;7.05;3.97;;;;;;;30.45;45.71;99453.13;4481895;32;34502;-71
2021/06/25 11:08:19;;;;;;;8.07;3.85;;;;;;;30.44;45.70;99449.56;4482703;32;33951;-72
2021/06/25 11:10:52;;;;;;;5.97;4.00;;;;;;;30.47;45.64;99449.00;4482594;32;33761;-72
2021/06/25 11:13:23;;;;;;;6.50;4.05;;;;;;;30.46;45.71;99443.78;4468462;32;32581;-71
2021/06/25 11:15:58;;;;;;;8.05;4.15;;;;;;;30.46;45.66;99447.34;4482707;32;33730;-71
2021/06/25 11:18:30;;;;;;;11.45;4.70;;;;;;;30.45;45.70;99445.72;4481628;32;33803;-71
2021/06/25 11:20:58;;;;;;;7.10;4.10;;;;;;;30.46;45.68;99454.78;4483471;32;33984;-71
2021/06/25 11:23:35;;;;;;;8.50;4.20;;;;;;;30.46;45.68;99441.84;4484867;32;33575;-72
2021/06/25 11:26:15;;;;;;;8.18;4.28;;;;;;;30.47;45.72;99442.66;4484665;32;33631;-72
2021/06/25 11:28:44;;;;;;;7.65;4.10;;;;;;;30.46;45.71;99447.34;4485160;32;33825;-71
2021/06/25 11:31:16;;;;;;;8.02;3.85;;;;;;;30.46;45.76;99450.09;4484774;32;33813;-72
2021/06/25 11:33:50;;;;;;;6.95;4.00;;;;;;;30.45;45.77;99448.47;4484542;32;33389;-71
2021/06/25 11:36:22;;;;;;;8.73;4.22;;;;;;;30.47;45.74;99451.75;4469292;32;34620;-72
2021/06/25 11:38:57;;;;;;;9.20;3.55;;;;;;;30.45;45.81;99445.72;4469426;32;34751;-72
2021/06/25 11:41:37;;;;;;;9.00;4.03;;;;;;;30.46;45.81;99446.53;4469064;32;33798;-72
2021/06/25 11:44:05;;;;;;;7.25;3.47;;;;;;;30.46;45.85;99447.34;4469121;32;33350;-71
2021/06/25 11:46:33;;;;;;;6.53;3.85;;;;;;;30.45;45.87;99453.97;4468993;32;33936;-72
2021/06/25 11:49:02;;;;;;;8.68;3.85;;;;;;;30.47;45.85;99445.41;4468937;32;33538;-72
2021/06/25 11:51:38;;;;;;;9.43;3.97;;;;;;;30.46;45.86;99452.84;4468015;32;34668;-72
2021/06/25 11:54:07;;;;;;;7.45;4.12;;;;;;;30.48;45.84;99445.13;4469349;32;33365;-72
2021/06/25 11:56:35;;;;;;;7.55;4.28;;;;;;;30.48;45.87;99447.06;4467658;32;33885;-71